Tiempo atmosférico en la estación meteorológica de Lugo, Lugo (442 m.)



Fecha
DESCASC
Temp. máxima en grados centígrados (hora)
DESCASC
Temp. mínima en grados centígrados (hora)
DESCASC
Temp. media en grados centígrados
DESCASC
Racha de viento máxima en m/sg (hora)
DESCASC
Velocidad máxima media en intervalos de 10 minutos(hora)
DESCASC
Precipitaciones diarias en mm
DESCASC
Precipitaciones de 00:00 a 06:00 en mm
DESCASC
Precipitaciones de 06:00 a 12:00 en mm
DESCASC
Precipitaciones de 12:00 a 18:00 en mm
DESCASC
Precipitaciones de 18:00 a 24:00 en mm
DESCASC
21-02-2021 9 (15:20) 2.5 (23:50) 5.8 5.28 (08:00) 2.5 (08:00) 20.8 11.2 9.6 0 0
20-02-2021 13.7 (04:30) 7 (23:50) 10.3 17.78 (02:40) 5.56 (03:10) 18.8 0 0.6 7.6 10.6
19-02-2021 14.8 (14:10) 6.6 (00:30) 10.7 11.39 (23:50) 3.89 (19:20) 0 0 0 0 0
18-02-2021 12.3 (17:10) 6.8 (00:00) 9.6 15.83 (04:00) 6.11 (04:00) 25 16.6 8.2 0.2 0
17-02-2021 13.8 (14:20) 2.1 (00:00) 8 8.89 (14:00) 3.33 (14:30) 12.4 0 0 0.6 11.8
16-02-2021 14 (16:40) 6.3 (00:00) 10.2 11.39 (15:40) 5.28 (15:40) 5.4 0 5.4 0 0
15-02-2021 21 (17:00) 10.3 (00:00) 15.7 10.28 (13:20) 3.89 (15:10) 0 0 0 0 0
14-02-2021 20 (17:30) 8 (00:00) 14 7.78 (22:40) 2.5 (19:30) 0 0 0 0 0
13-02-2021 13.6 (13:40) 6.8 (00:00) 10.2 6.11 (15:20) 2.22 (18:50) 0 0 0 0 0
12-02-2021 14.7 (17:10) 6.9 (00:00) 10.8 7.5 (03:10) 2.5 (03:20) 13.4 13.2 0.2 0 0
11-02-2021 15.2 (14:40) 7.1 (00:00) 11.1 8.33 (14:50) 3.06 (15:00) 7.8 0.8 1.4 0.4 5.2
10-02-2021 13.4 (16:50) 4.2 (00:00) 8.8 7.22 (22:50) 2.78 (12:40) 3 2.6 0.2 0 0.2
09-02-2021 10.3 (14:10) 4.4 (00:00) 7.4 18.33 (08:10) 6.67 (08:10) 20 3.6 8.2 0.8 7.4
08-02-2021 10.5 (14:10) 4.9 (00:00) 7.7 8.61 (15:00) 4.44 (14:20) 8.8 4.8 1.6 1.6 0.8
07-02-2021 7.3 (17:50) -0.7 (-00:0) 3.3 7.22 (14:30) 2.22 (12:20) 8.6 0 2 0.6 6
06-02-2021 7.8 (17:40) 2 (00:00) 4.9 8.89 (12:40) 3.89 (11:50) 4.2 3.6 0.6 0 0
05-02-2021 10 (13:00) 4 (00:00) 7 9.44 (18:00) 3.89 (16:50) 7.6 0 0 0.2 7.4
04-02-2021 12.2 (15:50) 5.6 (00:00) 8.9 5.83 (00:20) 1.67 (00:10) 1 0.2 0 0 0.8
03-02-2021 12.9 (15:50) 7.2 (00:00) 10 14.44 (05:50) 6.39 (05:50) 4 2.2 0.6 0 1.2
02-02-2021 12.6 (14:30) 10.3 (00:00) 11.5 10.28 (22:50) 3.89 (22:50) 20.8 0.2 4 7.6 9
01-02-2021 13.3 (16:30) 10.1 (00:00) 11.7 11.11 (00:30) 4.44 (00:50) 1.4 0 0.2 0.2 1
31-01-2021 14.4 (14:50) 7.7 (00:00) 11 15.83 (16:10) 7.22 (16:30) 4.8 3.4 1.4 0 0
30-01-2021 10.6 (01:00) 7.2 (00:00) 8.9 16.11 (14:10) 6.39 (14:10) 5.8 1.8 1.2 1.8 1
29-01-2021 14.1 (15:50) 10.5 (00:00) 12.3 7.78 (19:40) 3.33 (23:40) 9.8 0.2 0.4 0 9.2
28-01-2021 17.2 (13:50) 11.4 (00:00) 14.3 8.61 (12:30) 3.33 (17:20) 0.8 0 0 0.2 0.6
27-01-2021 14.7 (14:10) 12 (00:00) 13.3 5.83 (16:50) 2.22 (16:50) 0 0 0 0 0
26-01-2021 14.5 (14:10) 10.2 (00:00) 12.3 4.72 (17:30) 2.5 (17:30) 0.8 0.2 0 0 0.6
25-01-2021 11.7 (06:30) 7.7 (00:00) 9.7 7.78 (07:10) 3.89 (11:10) 12 3.6 7.2 1 0.2

Gráficas

Temp. máximas Temp. mínimas Temp. medias Precipitaciones Rachas de viento máximas Velocidades máximas media en intervalos de 10 minutos

Datos horarios

Fecha y hora oficial Temperatura (ºC) Velocidad del viento (km/h) Dirección del viento Racha (km/h) Dirección de racha Precipitación (mm) Presión (hPa) Tendencia (hPa) Humedad (%)
2021-02-23 23:00:00 13.5 14 Sur 35 Sur 0 -- -- 43
2021-02-23 22:00:00 13.2 12 Sur 35 Sur 0 -- -- 52
2021-02-23 21:00:00 13.5 12 Sudeste 27 Sur 0 -- -- 60
2021-02-23 20:00:00 13.6 9 Sur 27 Sur 0 -- -- 61
2021-02-23 19:00:00 14.2 7 Sur 23 Sur 0 -- -- 60
2021-02-23 18:00:00 15.2 7 Sur 27 Sur 0 -- -- 59
2021-02-23 17:00:00 15.6 13 Sur 33 Sur 0 -- -- 56
2021-02-23 16:00:00 16.3 12 Sur 33 Sur 0 -- -- 55
2021-02-23 15:00:00 15.9 12 Sur 35 Sur 0 -- -- 54
2021-02-23 14:00:00 16.2 7 Sur 32 Sur 0 -- -- 52
2021-02-23 13:00:00 16 12 Sur 34 Sur 0 -- -- 50
2021-02-23 12:00:00 14.4 10 Sur 35 Sudeste 0 -- -- 55
2021-02-23 11:00:00 13.1 10 Sur 32 Sur 0 -- -- 55
2021-02-23 10:00:00 10.5 6 Sur 24 Sur 0 -- -- 62
2021-02-23 09:00:00 9.9 8 Sur 26 Sudeste 0 -- -- 62
2021-02-23 08:00:00 8.5 4 Sur 17 Sur 0 -- -- 68
2021-02-23 07:00:00 8.1 5 Sur 17 Sudeste 0 -- -- 71
2021-02-23 06:00:00 6.1 4 Sur 10 Sudeste 0 -- -- 80
2021-02-23 05:00:00 5.1 3 Sur 13 Sudeste 0 -- -- 82
2021-02-23 04:00:00 4.4 3 Sudeste 12 Sudeste 0 -- -- 85
2021-02-23 03:00:00 4.4 5 Sudeste 12 Sudeste 0 -- -- 86
2021-02-23 02:00:00 4.7 4 Sudeste 13 Sudeste 0 -- -- 86
2021-02-23 01:00:00 5.3 4 Sudeste 11 Sur 0 -- -- 86
2021-02-23 00:00:00 5.7 6 Sudeste 12 Sudeste 0 -- -- 85
2021-02-22 23:00:00 6 5 Sudeste 10 Sudeste 0 -- -- 84
2021-02-22 22:00:00 7.1 4 Sudeste 12 Sudeste 0 -- -- 79
2021-02-22 21:00:00 8.5 2 Oeste 10 Sur 0 -- -- 72
2021-02-22 20:00:00 9.2 2 Sur 8 Sur 0 -- -- 64
2021-02-22 19:00:00 11.2 3 Sur 12 Sur 0 -- -- 56
2021-02-22 18:00:00 14.4 4 Sudoeste 20 Oeste 0 -- -- 49
2021-02-22 17:00:00 13.2 5 Sudoeste 17 Sur 0 -- -- 44
2021-02-22 16:00:00 11.6 5 Sur 23 Sur 0 -- -- 52
2021-02-22 15:00:00 10.4 4 Sur 19 Sur 0 -- -- 57
2021-02-22 14:00:00 11.9 5 Sur 18 Oeste 0 -- -- 64
2021-02-22 13:00:00 8.2 6 Sudeste 13 Este 0 -- -- 92
2021-02-22 12:00:00 4.4 4 Sudeste 15 Este 0 -- -- 97
2021-02-22 11:00:00 2.6 4 Sudeste 11 Sur 0 -- -- 98
2021-02-22 10:00:00 1.3 5 Sudeste 12 Sur 0.2 -- -- 98
2021-02-22 09:00:00 1 3 Sur 10 Sudeste 0 -- -- 98
2021-02-22 08:00:00 0.7 3 Sudeste 8 Sur 0 -- -- 97
2021-02-22 07:00:00 1.1 3 Sur 10 Sudeste 0 -- -- 97
2021-02-22 06:00:00 0.9 5 Sudeste 13 Sudeste 0 -- -- 97
2021-02-22 05:00:00 1.7 2 Sur 6 Sudeste 0 -- -- 97
2021-02-22 04:00:00 1.6 0 Calma 7 Sur 0 -- -- 96
2021-02-22 03:00:00 1.6 3 Sudeste 9 Sudeste 0 -- -- 96
2021-02-22 02:00:00 2.1 3 Sudeste 7 Este 0 -- -- 95
2021-02-22 01:00:00 2.3 3 Sudeste 5 Sudeste 0 -- -- 94
2021-02-22 00:00:00 2.5 0 Calma 3 Noroeste 0 -- -- 93
2021-02-21 23:00:00 3.7 0 Calma 3 Este 0 -- -- 92
2021-02-21 22:00:00 4.1 0 Calma 3 Oeste 0 -- -- 89
2021-02-21 21:00:00 5.3 2 Noroeste 8 Noroeste 0 -- -- 87
2021-02-21 20:00:00 6.2 2 Oeste 12 Noroeste 0 -- -- 84
2021-02-21 19:00:00 7.3 5 Noroeste 17 Noroeste 0 -- -- 79
2021-02-21 18:00:00 8.3 4 Oeste 9 Noroeste 0 -- -- 79
2021-02-21 17:00:00 8.6 2 Oeste 14 Noroeste 0 -- -- 77
2021-02-21 16:00:00 8.3 5 Oeste 13 Oeste 0 -- -- 79
2021-02-21 15:00:00 8.4 4 Sudeste 11 Sudeste 0 -- -- 82
2021-02-21 14:00:00 7.2 3 Sudeste 10 Oeste 0 -- -- 89
2021-02-21 13:00:00 6 3 Sur 14 Sudeste 0 -- -- 94
2021-02-21 12:00:00 4.5 6 Sudeste 17 Sudeste 0 -- -- 95
2021-02-21 11:00:00 4.3 3 Sudeste 9 Este 1.4 -- -- 96
2021-02-21 10:00:00 3.6 0 Calma 6 Oeste 0.8 -- -- 96
2021-02-21 09:00:00 3.4 3 Noroeste 17 Noroeste 3.2 -- -- 96
2021-02-21 08:00:00 4.1 9 Noroeste 19 Noroeste 2.4 -- -- 95
2021-02-21 07:00:00 5.1 4 Noroeste 15 Noroeste 1.8 -- -- 96
2021-02-21 06:00:00 5.1 3 Noroeste 10 Norte 0.8 -- -- 95
2021-02-21 05:00:00 5.2 4 Noroeste 12 Noroeste 1.2 -- -- 95
2021-02-21 04:00:00 5.6 4 Noroeste 12 Noroeste 1.4 -- -- 95
2021-02-21 03:00:00 6 3 Noroeste 9 Noroeste 2.2 -- -- 94
2021-02-21 02:00:00 6.7 0 Calma 9 Noroeste 3.4 -- -- 95
2021-02-21 01:00:00 7 2 Oeste 4 Noroeste 2.2 -- -- 94
2021-02-21 00:00:00 7 2 Sur 8 Sudoeste 0.6 -- -- 94
2021-02-20 23:00:00 7.3 4 Oeste 16 Oeste 1 -- -- 93
2021-02-20 22:00:00 7.8 4 Oeste 11 Oeste 2.8 -- -- 94
2021-02-20 21:00:00 9 3 Sudeste 9 Sur 2.2 -- -- 95
2021-02-20 20:00:00 9.1 4 Sur 10 Sudeste 2.2 -- -- 95
2021-02-20 19:00:00 9.1 3 Sur 17 Sur 1.8 -- -- 94
2021-02-20 18:00:00 9.7 4 Sur 23 Sur 2 -- -- 92
2021-02-20 17:00:00 10.3 6 Sur 28 Sur 2.2 -- -- 92
2021-02-20 16:00:00 10.9 5 Sudoeste 27 Sudeste 1.8 -- -- 91
2021-02-20 15:00:00 11.7 6 Sur 19 Sudoeste 0.6 -- -- 88
2021-02-20 14:00:00 11.6 9 Sur 27 Sur 0.4 -- -- 88
2021-02-20 13:00:00 10.8 9 Sur 35 Sur 0.6 -- -- 87
2021-02-20 12:00:00 10.8 11 Sur 41 Sur 0.4 -- -- 84
2021-02-20 11:00:00 11.3 13 Sur 41 Sur 0.2 -- -- 81
2021-02-20 10:00:00 12 13 Sur 42 Sur 0 -- -- 74
2021-02-20 09:00:00 12.8 14 Sur 48 Sur 0 -- -- 64
2021-02-20 08:00:00 12.7 16 Sur 49 Sudeste 0 -- -- 62
2021-02-20 07:00:00 13 16 Sur 53 Sur 0 -- -- 63
2021-02-20 06:00:00 13.1 18 Sur 44 Sudeste 0 -- -- 62
2021-02-20 05:00:00 13.4 17 Sur 51 Sur 0 -- -- 60
2021-02-20 04:00:00 13.6 16 Sur 51 Sur 0 -- -- 59
2021-02-20 03:00:00 13.2 15 Sur 64 Sur 0 -- -- 60
2021-02-20 02:00:00 12.9 15 Sur 44 Sur 0 -- -- 62
2021-02-20 01:00:00 13.1 15 Sur 45 Sur 0 -- -- 63
2021-02-20 00:00:00 13.2 12 Sur 41 Sur 0 -- -- 65
2021-02-19 23:00:00 12.9 10 Sur 39 Sudeste 0 -- -- 68
2021-02-19 22:00:00 12.8 10 Sur 34 Sur 0 -- -- 67
2021-02-19 21:00:00 12.7 11 Sur 32 Sur 0 -- -- 68
2021-02-19 20:00:00 12.6 12 Sur 40 Sudeste 0 -- -- 70
2021-02-19 19:00:00 12.8 11 Sur 38 Sur 0 -- -- 70
2021-02-19 18:00:00 13.2 8 Sur 26 Sudeste 0 -- -- 69
2021-02-19 17:00:00 13.4 10 Sur 38 Sur 0 -- -- 69
2021-02-19 16:00:00 13.7 7 Sudoeste 36 Sudeste 0 -- -- 71
2021-02-19 15:00:00 14.1 12 Sur 34 Sur 0 -- -- 68
2021-02-19 14:00:00 14.2 10 Sur 30 Sur 0 -- -- 71
2021-02-19 13:00:00 13.6 9 Sur 40 Sudeste 0 -- -- 66
2021-02-19 12:00:00 13 7 Sur 35 Sur 0 -- -- 69
2021-02-19 11:00:00 13.2 12 Sur 32 Sudeste 0 -- -- 68
2021-02-19 10:00:00 11.3 7 Sur 28 Sur 0 -- -- 75
2021-02-19 09:00:00 10.3 7 Sur 23 Sur 0 -- -- 78
2021-02-19 08:00:00 10 5 Sudoeste 23 Sudeste 0 -- -- 79
2021-02-19 07:00:00 9.4 5 Sur 16 Sur 0 -- -- 80
2021-02-19 06:00:00 8 5 Sur 18 Sur 0 -- -- 86
2021-02-19 05:00:00 7.9 4 Sur 12 Sur 0 -- -- 85
2021-02-19 04:00:00 8.1 4 Sur 16 Sur 0 -- -- 83
2021-02-19 03:00:00 7.5 6 Sur 18 Sur 0 -- -- 85
2021-02-19 02:00:00 6.9 3 Sur 11 Sur 0 -- -- 88
2021-02-19 01:00:00 6.9 4 Sur 14 Sur 0 -- -- 88
2021-02-19 00:00:00 6.8 5 Sur 14 Sur 0 -- -- 88
2021-02-18 23:00:00 7.7 4 Sur 17 Sur 0 -- -- 84
2021-02-18 22:00:00 8.1 4 Sur 12 Sur 0 -- -- 82
2021-02-18 21:00:00 8.3 3 Sur 12 Sudoeste 0 -- -- 79
2021-02-18 20:00:00 9 3 Sur 12 Sur 0 -- -- 74
2021-02-18 19:00:00 9.7 3 Sudoeste 15 Oeste 0 -- -- 69
2021-02-18 18:00:00 11.8 6 Sudoeste 22 Oeste 0 -- -- 59
2021-02-18 17:00:00 12 12 Sudoeste 28 Oeste 0 -- -- 58
2021-02-18 16:00:00 11.1 11 Oeste 26 Sudoeste 0 -- -- 67
2021-02-18 15:00:00 11.4 6 Sudoeste 19 Oeste 0 -- -- 71
2021-02-18 14:00:00 11.2 9 Sudoeste 24 Oeste 0.2 -- -- 75
2021-02-18 13:00:00 8.2 12 Oeste 23 Oeste 0 -- -- 83
2021-02-18 12:00:00 8.5 9 Oeste 19 Oeste 0 -- -- 84
2021-02-18 11:00:00 7.7 3 Sudoeste 18 Oeste 0 -- -- 91
2021-02-18 10:00:00 7.5 3 Sudoeste 21 Oeste 0.4 -- -- 93
2021-02-18 09:00:00 7.4 9 Oeste 29 Oeste 0.6 -- -- 92
2021-02-18 08:00:00 7.9 15 Oeste 39 Oeste 1.2 -- -- 92
2021-02-18 07:00:00 7.7 9 Oeste 40 Oeste 6 -- -- 94
2021-02-18 06:00:00 9.1 13 Oeste 39 Oeste 4.4 -- -- 90
2021-02-18 05:00:00 9.1 6 Sudoeste 46 Oeste 1.4 -- -- 89
2021-02-18 04:00:00 9.8 22 Sudoeste 57 Oeste 0.8 -- -- 82
2021-02-18 03:00:00 9.6 10 Sudoeste 29 Oeste 5.4 -- -- 94
2021-02-18 02:00:00 9.7 5 Sur 27 Oeste 3 -- -- 94
2021-02-18 01:00:00 9.7 6 Sur 24 Sur 1.6 -- -- 94
2021-02-18 00:00:00 10 6 Sudoeste 30 Oeste 2.6 -- -- 94
2021-02-17 23:00:00 10.1 9 Sur 26 Sudeste 0.2 -- -- 94
2021-02-17 22:00:00 9.8 6 Sur 27 Oeste 3.8 -- -- 93
2021-02-17 21:00:00 9.8 6 Sur 26 Oeste 2.2 -- -- 92
2021-02-17 20:00:00 10.1 6 Sudoeste 21 Oeste 2.2 -- -- 92
2021-02-17 19:00:00 10.6 5 Sur 25 Sur 0.8 -- -- 91
2021-02-17 18:00:00 11 4 Sur 23 Sur 0.4 -- -- 89
2021-02-17 17:00:00 11.7 6 Sur 23 Sudeste 0.2 -- -- 83
2021-02-17 16:00:00 13.5 6 Sudoeste 27 Oeste 0 -- -- 66
2021-02-17 15:00:00 13.4 7 Sudoeste 32 Oeste 0 -- -- 62
2021-02-17 14:00:00 13.3 10 Sudoeste 32 Sudoeste 0 -- -- 62
2021-02-17 13:00:00 12 6 Sudoeste 28 Sur 0 -- -- 65
2021-02-17 12:00:00 11.4 6 Sur 19 Sur 0 -- -- 82
2021-02-17 11:00:00 6.6 3 Sur 8 Sur 0 -- -- 94
2021-02-17 10:00:00 4 2 Sudeste 9 Sudeste 0 -- -- 95
2021-02-17 09:00:00 2.6 3 Sudeste 8 Sudeste 0 -- -- 96
2021-02-17 08:00:00 2.3 2 Sudeste 6 Este 0 -- -- 95
2021-02-17 07:00:00 2.9 2 Sudeste 8 Este 0 -- -- 95
2021-02-17 06:00:00 2.8 2 Sudeste 5 Sudeste 0 -- -- 94
2021-02-17 05:00:00 3.3 0 Calma 5 Sudeste 0 -- -- 92
2021-02-17 04:00:00 4.3 3 Sudeste 8 Sudeste 0 -- -- 92
2021-02-17 03:00:00 4.8 3 Sudeste 7 Este 0 -- -- 90
2021-02-17 02:00:00 5.1 2 Este 6 Sudeste 0 -- -- 89
2021-02-17 01:00:00 5.5 2 Sudeste 9 Sur 0 -- -- 85
2021-02-17 00:00:00 6.3 3 Sur 8 Sur 0 -- -- 81
2021-02-16 23:00:00 7.1 0 Calma 8 Sur 0 -- -- 78
2021-02-16 22:00:00 8.1 0 Calma 15 Oeste 0 -- -- 69
2021-02-16 21:00:00 8.3 2 Sur 9 Oeste 0 -- -- 71
2021-02-16 20:00:00 10.2 8 Oeste 17 Oeste 0 -- -- 62
2021-02-16 19:00:00 11.2 2 Oeste 23 Oeste 0 -- -- 64
2021-02-16 18:00:00 13.2 13 Oeste 35 Oeste 0 -- -- 57
2021-02-16 17:00:00 14 14 Sudoeste 34 Oeste 0 -- -- 48
2021-02-16 16:00:00 13.1 15 Oeste 41 Oeste 0 -- -- 54
2021-02-16 15:00:00 12.9 11 Oeste 31 Oeste 0 -- -- 61
2021-02-16 14:00:00 13.1 11 Oeste 27 Oeste 0 -- -- 61
2021-02-16 13:00:00 12 10 Oeste 29 Oeste 0 -- -- 72
2021-02-16 12:00:00 10.3 4 Oeste 18 Oeste 0 -- -- 84
2021-02-16 11:00:00 9.5 10 Oeste 30 Sudoeste 0.2 -- -- 84
2021-02-16 10:00:00 8.8 7 Oeste 23 Sudoeste 1.2 -- -- 91
2021-02-16 09:00:00 9.2 12 Oeste 31 Sudoeste 3.6 -- -- 90
2021-02-16 08:00:00 11.3 6 Sudoeste 36 Sur 0.4 -- -- 73
2021-02-16 07:00:00 11.9 8 Sur 32 Sur 0 -- -- 66
2021-02-16 06:00:00 11.9 10 Sur 29 Sudoeste 0 -- -- 68
2021-02-16 05:00:00 11.4 6 Sur 25 Sur 0 -- -- 72
2021-02-16 04:00:00 11.3 5 Sur 19 Sur 0 -- -- 73
2021-02-16 03:00:00 11.7 4 Sudoeste 27 Oeste 0 -- -- 74
2021-02-16 02:00:00 12.5 9 Sudoeste 35 Oeste 0 -- -- 65
2021-02-16 01:00:00 12.3 4 Sudoeste 21 Noroeste 0 -- -- 57
2021-02-16 00:00:00 12.4 4 Sur 10 Sur 0 -- -- 56
2021-02-15 23:00:00 12.3 3 Sur 13 Sur 0 -- -- 57
2021-02-15 22:00:00 12.7 4 Sur 11 Sur 0 -- -- 57
2021-02-15 21:00:00 13.6 3 Sur 13 Sudeste 0 -- -- 54
2021-02-15 20:00:00 14.4 3 Sur 17 Sur 0 -- -- 51
2021-02-15 19:00:00 16 4 Sur 19 Sur 0 -- -- 47
2021-02-15 18:00:00 17.9 6 Sudoeste 30 Sudeste 0 -- -- 42
2021-02-15 17:00:00 21 6 Sur 36 Sudeste 0 -- -- 35
2021-02-15 16:00:00 18.9 10 Sur 31 Sudeste 0 -- -- 38
2021-02-15 15:00:00 18.8 12 Sur 29 Sudeste 0 -- -- 37
2021-02-15 14:00:00 19.8 8 Sur 37 Sur 0 -- -- 37
2021-02-15 13:00:00 18.4 10 Sur 35 Sur 0 -- -- 39
2021-02-15 12:00:00 16 8 Sur 25 Sudeste 0 -- -- 49
2021-02-15 11:00:00 13.5 6 Sur 20 Sudeste 0 -- -- 57
2021-02-15 10:00:00 11.4 4 Sur 19 Sur 0 -- -- 59
2021-02-15 09:00:00 10.4 4 Sur 18 Sur 0 -- -- 58
2021-02-15 08:00:00 11.2 9 Sur 21 Sur 0 -- -- 52
2021-02-15 07:00:00 11.2 7 Sur 20 Sudeste 0 -- -- 52
2021-02-15 06:00:00 11.5 9 Sudeste 22 Sudeste 0 -- -- 49
2021-02-15 05:00:00 11.6 8 Sudeste 17 Sudeste 0 -- -- 49
2021-02-15 04:00:00 11.6 5 Sur 15 Sur 0 -- -- 53
2021-02-15 03:00:00 11.9 4 Sur 14 Sudeste 0 -- -- 54
2021-02-15 02:00:00 12.2 6 Sur 19 Sudeste 0 -- -- 57
2021-02-15 01:00:00 12.7 7 Sur 21 Sudeste 0 -- -- 54
2021-02-15 00:00:00 13.2 7 Sur 25 Sur 0 -- -- 53
2021-02-14 23:00:00 13.4 6 Sur 28 Sur 0 -- -- 54
2021-02-14 22:00:00 13.4 8 Sudeste 22 Sur 0 -- -- 59
2021-02-14 21:00:00 13.6 6 Sudeste 17 Sudeste 0 -- -- 58
2021-02-14 20:00:00 14.5 7 Sudeste 19 Sudeste 0 -- -- 57
2021-02-14 19:00:00 15.4 6 Sur 27 Sudoeste 0 -- -- 50
2021-02-14 18:00:00 19 6 Sur 23 Sur 0 -- -- 41
2021-02-14 17:00:00 18.9 7 Sudoeste 25 Sudoeste 0 -- -- 44
2021-02-14 16:00:00 17.2 5 Sur 25 Sudoeste 0 -- -- 54
2021-02-14 15:00:00 16.5 7 Sudoeste 17 Oeste 0 -- -- 52
2021-02-14 14:00:00 16.1 6 Sur 22 Sur 0 -- -- 57
2021-02-14 13:00:00 15.6 5 Sur 18 Sudoeste 0 -- -- 61
2021-02-14 12:00:00 14.8 5 Sur 26 Sudeste 0 -- -- 63
2021-02-14 11:00:00 13.9 7 Sur 26 Sudeste 0 -- -- 67
2021-02-14 10:00:00 11.5 5 Sur 21 Sur 0 -- -- 79
2021-02-14 09:00:00 9.3 4 Sur 14 Sur 0 -- -- 87
2021-02-14 08:00:00 8.1 4 Sur 13 Sudeste 0 -- -- 89
2021-02-14 07:00:00 8.5 4 Sur 10 Sur 0 -- -- 88
2021-02-14 06:00:00 9.1 3 Sur 9 Sur 0 -- -- 85
2021-02-14 05:00:00 9.9 4 Sur 16 Sudeste 0 -- -- 82
2021-02-14 04:00:00 10.8 5 Sur 22 Sur 0 -- -- 80
2021-02-14 03:00:00 10.7 5 Sur 17 Sur 0 -- -- 84
2021-02-14 02:00:00 10.5 6 Sudeste 17 Sur 0 -- -- 86
2021-02-14 01:00:00 10.8 5 Sudeste 12 Sudeste 0 -- -- 87
2021-02-14 00:00:00 10.9 4 Sur 12 Sur 0 -- -- 88
2021-02-13 23:00:00 10.9 4 Sur 15 Sur 0 -- -- 88
2021-02-13 22:00:00 11.2 4 Sur 14 Sur 0 -- -- 87
2021-02-13 21:00:00 11.9 4 Sur 15 Sur 0 -- -- 87
2021-02-13 20:00:00 12.2 3 Sudoeste 13 Sur 0 -- -- 85
2021-02-13 19:00:00 12.4 7 Sur 17 Sudeste 0 -- -- 83
2021-02-13 18:00:00 13 4 Sur 17 Sur 0 -- -- 82
2021-02-13 17:00:00 12.9 5 Sur 17 Sur 0 -- -- 82
2021-02-13 16:00:00 12.8 5 Sur 22 Sur 0 -- -- 80
2021-02-13 15:00:00 12.9 6 Sur 14 Sudeste 0 -- -- 78
2021-02-13 14:00:00 13.3 4 Sudoeste 20 Sudoeste 0 -- -- 76
2021-02-13 13:00:00 12.8 7 Sur 21 Sudoeste 0 -- -- 76
2021-02-13 08:00:00 -- -- -- -- -- -- -- -- --
2021-02-13 07:00:00 -- -- -- -- -- -- -- -- --
2021-02-13 06:00:00 -- -- -- -- -- -- -- -- --
2021-02-13 05:00:00 -- -- -- -- -- -- -- -- --
2021-02-13 04:00:00 7.7 4 Sudeste 11 Sudeste 0 -- -- 89
2021-02-13 03:00:00 7.6 3 Sur 8 Sur 0 -- -- 88
2021-02-13 02:00:00 7.5 0 Calma 7 Este 0 -- -- 89
2021-02-13 01:00:00 6.8 3 Sudeste 10 Sudeste 0 -- -- 89
2021-02-13 00:00:00 6.9 3 Sudeste 12 Sur 0 -- -- 88
2021-02-12 23:00:00 7.5 3 Sur 6 Sur 0 -- -- 86
2021-02-12 22:00:00 7.6 2 Sur 5 Sur 0 -- -- 84
2021-02-12 21:00:00 8.9 3 Sudoeste 8 Oeste 0 -- -- 81
2021-02-12 20:00:00 10 6 Oeste 16 Oeste 0 -- -- 74
2021-02-12 19:00:00 11.2 8 Oeste 19 Oeste 0 -- -- 69
2021-02-12 18:00:00 12.7 6 Oeste 18 Sudoeste 0 -- -- 65
2021-02-12 17:00:00 14.5 8 Oeste 22 Oeste 0 -- -- 57
2021-02-12 16:00:00 13.2 7 Oeste 19 Sudoeste 0 -- -- 64
2021-02-12 15:00:00 13 3 Sudoeste 18 Oeste 0 -- -- 71
2021-02-12 14:00:00 13 6 Oeste 19 Oeste 0 -- -- 73
2021-02-12 13:00:00 11.6 6 Oeste 17 Oeste 0 -- -- 80
2021-02-12 12:00:00 10.8 4 Oeste 11 Sudoeste 0 -- -- 87
2021-02-12 11:00:00 10.1 4 Oeste 17 Oeste 0 -- -- 88
2021-02-12 10:00:00 9.4 3 Sudoeste 10 Oeste 0 -- -- 94
2021-02-12 09:00:00 8.7 4 Oeste 12 Oeste 0 -- -- 95
2021-02-12 08:00:00 8.6 5 Oeste 13 Noroeste 0 -- -- 96
2021-02-12 07:00:00 8.7 5 Oeste 14 Oeste 0.2 -- -- 96
2021-02-12 06:00:00 9 4 Oeste 17 Oeste 1.8 -- -- 97
2021-02-12 05:00:00 9.3 5 Oeste 13 Oeste 2 -- -- 97
2021-02-12 04:00:00 9.5 0 Calma 27 Oeste 4.4 -- -- 96
2021-02-12 03:00:00 10.1 2 Sudoeste 8 Oeste 2.4 -- -- 97
2021-02-12 02:00:00 10.2 0 Calma 9 Oeste 0.2 -- -- 96
2021-02-12 01:00:00 10.5 0 Calma 15 Sur 2.4 -- -- 96
2021-02-12 00:00:00 10.9 5 Sur 12 Sudeste 0.8 -- -- 96
2021-02-11 23:00:00 11.2 4 Sur 12 Sur 1.6 -- -- 95
2021-02-11 22:00:00 11.5 3 Sur 9 Sudeste 1 -- -- 94
2021-02-11 21:00:00 11.6 0 Calma 9 Oeste 0.8 -- -- 93
2021-02-11 20:00:00 12.2 6 Sudoeste 14 Oeste 0.2 -- -- 93
2021-02-11 19:00:00 12.4 2 Sur 18 Oeste 0.8 -- -- 92
2021-02-11 18:00:00 13.1 3 Sudoeste 18 Sur 0.2 -- -- 87
2021-02-11 17:00:00 14.3 5 Sur 18 Sur 0 -- -- 79
2021-02-11 16:00:00 15.1 5 Sur 30 Oeste 0 -- -- 76
2021-02-11 15:00:00 15.2 11 Sudoeste 30 Oeste 0 -- -- 76
2021-02-11 14:00:00 13.6 5 Sudoeste 22 Oeste 0.2 -- -- 89
2021-02-11 13:00:00 12.7 2 Sur 15 Sur 0 -- -- 92
2021-02-11 12:00:00 11.8 5 Sur 19 Sur 0.4 -- -- 94
2021-02-11 11:00:00 11.1 6 Sur 22 Sur 0.4 -- -- 95
2021-02-11 10:00:00 10.5 4 Sur 14 Sur 0.4 -- -- 95
2021-02-11 09:00:00 10.6 3 Sur 21 Sudoeste 0.2 -- -- 95
2021-02-11 08:00:00 10.4 6 Sur 21 Sur 0 -- -- 95
2021-02-11 07:00:00 10.3 7 Sudeste 19 Sudeste 0 -- -- 95
2021-02-11 06:00:00 10.3 5 Sur 18 Sur 0 -- -- 96
2021-02-11 05:00:00 9.8 5 Sur 19 Sur 0 -- -- 96
2021-02-11 04:00:00 9 6 Sudeste 13 Sudeste 0 -- -- 96
2021-02-11 03:00:00 8.5 5 Sur 15 Sur 0.4 -- -- 96
2021-02-11 02:00:00 7.8 5 Sudeste 13 Sudeste 0.2 -- -- 95
2021-02-11 01:00:00 7.4 6 Sudeste 19 Sudeste 0.2 -- -- 95
2021-02-11 00:00:00 7.1 8 Sudeste 21 Sudeste 0.2 -- -- 93
2021-02-10 23:00:00 7.4 5 Sudeste 26 Sur 0 -- -- 89
2021-02-10 22:00:00 8.6 5 Sur 17 Sur 0 -- -- 76
2021-02-10 21:00:00 9 3 Sur 15 Sur 0 -- -- 73
2021-02-10 20:00:00 9.1 2 Sur 6 Sur 0 -- -- 73
2021-02-10 19:00:00 9.4 3 Sur 12 Sur 0 -- -- 70
2021-02-10 18:00:00 10.5 4 Sur 18 Sur 0 -- -- 69
2021-02-10 17:00:00 12.4 5 Sudoeste 19 Sur 0 -- -- 62
2021-02-10 16:00:00 11.7 3 Sudoeste 20 Sudoeste 0 -- -- 60
2021-02-10 15:00:00 11.1 7 Oeste 19 Oeste 0 -- -- 63
2021-02-10 14:00:00 10.7 5 Sudoeste 18 Oeste 0 -- -- 65
2021-02-10 13:00:00 9.2 6 Oeste 23 Sudoeste 0 -- -- 73
2021-02-10 12:00:00 8.6 8 Oeste 23 Oeste 0 -- -- 76
2021-02-10 11:00:00 7 5 Sudoeste 16 Oeste 0 -- -- 86
2021-02-10 10:00:00 5.7 0 Calma 9 Sudoeste 0 -- -- 93
2021-02-10 09:00:00 4.7 0 Calma 9 Oeste 0 -- -- 93
2021-02-10 08:00:00 4.7 4 Oeste 10 Oeste 0 -- -- 94
2021-02-10 07:00:00 4.8 3 Sudoeste 8 Oeste 0.2 -- -- 93
2021-02-10 06:00:00 4.5 0 Calma 10 Oeste 0 -- -- 92
2021-02-10 05:00:00 4.9 4 Sudoeste 17 Noroeste 0 -- -- 93
2021-02-10 04:00:00 5.4 3 Oeste 11 Oeste 0 -- -- 93
2021-02-10 03:00:00 5.3 5 Oeste 18 Oeste 0 -- -- 93
2021-02-10 02:00:00 5.8 4 Oeste 17 Sudoeste 0.6 -- -- 95
2021-02-10 01:00:00 5.4 5 Sudoeste 15 Oeste 2 -- -- 95
2021-02-10 00:00:00 4.6 3 Sur 30 Oeste 3.8 -- -- 93
2021-02-09 23:00:00 5.2 3 Sudoeste 24 Oeste 2.8 -- -- 93
2021-02-09 22:00:00 5.8 3 Sur 9 Sur 0 -- -- 91
2021-02-09 21:00:00 6.2 4 Sudoeste 31 Oeste 0 -- -- 88
2021-02-09 20:00:00 4.4 7 Sudeste 19 Sudeste 0.6 -- -- 94
2021-02-09 19:00:00 5 9 Sudeste 20 Sudeste 0.2 -- -- 91
2021-02-09 18:00:00 5.6 5 Sudoeste 49 Oeste 0.8 -- -- 88
2021-02-09 17:00:00 8.2 14 Sudoeste 45 Oeste 0 -- -- 70
2021-02-09 16:00:00 9 15 Oeste 39 Oeste 0 -- -- 71
2021-02-09 15:00:00 9.2 22 Oeste 54 Oeste 0 -- -- 63
2021-02-09 14:00:00 9.9 17 Oeste 41 Oeste 0 -- -- 60
2021-02-09 13:00:00 8.7 19 Oeste 47 Oeste 0 -- -- 68
2021-02-09 12:00:00 7.8 17 Oeste 40 Sudoeste 0.2 -- -- 76
2021-02-09 11:00:00 6 5 Sur 22 Oeste 0 -- -- 92
2021-02-09 10:00:00 5.7 6 Sudoeste 20 Sur 0.2 -- -- 93
2021-02-09 09:00:00 5.3 5 Sudoeste 66 Oeste 1.6 -- -- 92
2021-02-09 08:00:00 7.5 12 Sudoeste 53 Oeste 2.4 -- -- 92
2021-02-09 07:00:00 7.4 6 Sudoeste 33 Oeste 3.8 -- -- 94
2021-02-09 06:00:00 7.6 5 Sur 26 Sudeste 1.8 -- -- 95
2021-02-09 05:00:00 7.1 7 Sur 24 Sur 0.8 -- -- 95
2021-02-09 04:00:00 6.9 7 Sur 22 Sur 0.2 -- -- 94
2021-02-09 03:00:00 6.7 6 Sur 23 Sur 0.2 -- -- 94
2021-02-09 02:00:00 6.7 6 Sur 23 Sudeste 0.2 -- -- 94
2021-02-09 01:00:00 6.9 7 Sur 24 Sudeste 0.4 -- -- 93
2021-02-09 00:00:00 7.1 4 Sur 15 Sudeste 0.4 -- -- 92
2021-02-08 23:00:00 7.4 4 Sur 13 Sur 0 -- -- 89
2021-02-08 22:00:00 7.7 4 Sudoeste 29 Oeste 0 -- -- 89
2021-02-08 21:00:00 8.1 12 Sudoeste 30 Oeste 0 -- -- 89
2021-02-08 20:00:00 8.4 13 Oeste 25 Oeste 0 -- -- 90
2021-02-08 19:00:00 8.3 3 Sudoeste 18 Oeste 0.4 -- -- 91
2021-02-08 18:00:00 8.9 5 Oeste 19 Noroeste 0 -- -- 91
2021-02-08 17:00:00 9.2 5 Oeste 24 Noroeste 0.8 -- -- 90
2021-02-08 16:00:00 9.7 9 Noroeste 24 Noroeste 0.2 -- -- 79
2021-02-08 15:00:00 10.3 13 Oeste 31 Oeste 0 -- -- 79
2021-02-08 14:00:00 9.5 8 Oeste 29 Sudoeste 0.2 -- -- 88
2021-02-08 13:00:00 7.8 6 Oeste 17 Oeste 0.4 -- -- 92
2021-02-08 12:00:00 6.9 4 Sur 21 Oeste 0.2 -- -- 93
2021-02-08 11:00:00 6.3 8 Sudoeste 21 Sudoeste 1.2 -- -- 95
2021-02-08 10:00:00 5.7 0 Calma 10 Sudeste 0 -- -- 95
2021-02-08 09:00:00 5.1 4 Sur 12 Sudeste 0 -- -- 95
2021-02-08 08:00:00 5.3 4 Sur 14 Sur 0.2 -- -- 95
2021-02-08 07:00:00 5.9 3 Sudoeste 13 Oeste 0 -- -- 94
2021-02-08 06:00:00 6.3 2 Sudoeste 5 Sur 0.2 -- -- 95
2021-02-08 05:00:00 6.3 2 Sur 17 Oeste 0 -- -- 94
2021-02-08 04:00:00 6.7 8 Oeste 22 Oeste 0.6 -- -- 93
2021-02-08 03:00:00 7.3 8 Oeste 20 Oeste 0.2 -- -- 93
2021-02-08 02:00:00 7.2 2 Sudoeste 5 Sur 0.2 -- -- 96
2021-02-08 01:00:00 7.2 0 Calma 24 Oeste 3.6 -- -- 95
2021-02-08 00:00:00 7.1 4 Sur 18 Sudeste 1.6 -- -- 97
2021-02-07 23:00:00 7.2 8 Sudeste 18 Sudeste 2 -- -- 96
2021-02-07 22:00:00 6.9 4 Sur 21 Sur 1 -- -- 96
2021-02-07 21:00:00 6.7 5 Sur 17 Sur 0.6 -- -- 95
2021-02-07 20:00:00 6.7 6 Sur 22 Sur 0.8 -- -- 94
2021-02-07 19:00:00 6.8 8 Sur 20 Sudeste 0 -- -- 92
2021-02-07 18:00:00 7.2 6 Sur 26 Sudeste 0.2 -- -- 91
2021-02-07 17:00:00 6 5 Sur 23 Sur 0 -- -- 94
2021-02-07 16:00:00 5.7 7 Sur 22 Sur 0 -- -- 96
2021-02-07 15:00:00 4.9 6 Sur 26 Sudeste 0 -- -- 96
2021-02-07 14:00:00 4.5 5 Sur 18 Sur 0.2 -- -- 97
2021-02-07 13:00:00 3.5 6 Sur 18 Sudeste 0.2 -- -- 98
2021-02-07 12:00:00 2.9 6 Sudeste 14 Sudeste 0.8 -- -- 98
2021-02-07 11:00:00 2.4 5 Sur 12 Sur 0.4 -- -- 98
2021-02-07 10:00:00 1 5 Sudeste 13 Sudeste 0.8 -- -- 98
2021-02-07 09:00:00 0.4 6 Sudeste 17 Sudeste 0 -- -- 98
2021-02-07 08:00:00 0.2 5 Sudeste 11 Sudeste 0 -- -- 98
2021-02-07 07:00:00 -0.1 3 Sur 12 Sudeste 0 -- -- 97
2021-02-07 06:00:00 -0.2 6 Sudeste 11 Este 0 -- -- 97
2021-02-07 05:00:00 0 3 Sudeste 7 Este 0 -- -- 96
2021-02-07 04:00:00 -0.5 5 Sudeste 8 Sudeste 0 -- -- 96
2021-02-07 03:00:00 -0.5 0 Calma 2 Sudeste 0 -- -- 95
2021-02-07 02:00:00 0.2 0 Calma 5 Noroeste 0 -- -- 94
2021-02-07 01:00:00 1.2 0 Calma 2 Sudoeste 0 -- -- 93
2021-02-07 00:00:00 2 0 Calma 3 Oeste 0 -- -- 92
2021-02-06 23:00:00 3 0 Calma 7 Noroeste 0 -- -- 90
2021-02-06 22:00:00 3.8 3 Noroeste 12 Norte 0 -- -- 88
2021-02-06 21:00:00 4.4 6 Norte 14 Norte 0 -- -- 85
2021-02-06 20:00:00 4.3 3 Norte 13 Nordeste 0 -- -- 84
2021-02-06 19:00:00 5.2 6 Nordeste 22 Nordeste 0 -- -- 82
2021-02-06 18:00:00 6.4 9 Norte 21 Nordeste 0 -- -- 77
2021-02-06 17:00:00 7.4 7 Nordeste 26 Norte 0 -- -- 70
2021-02-06 16:00:00 7.4 10 Norte 25 Nordeste 0 -- -- 75
2021-02-06 15:00:00 6.6 11 Norte 28 Nordeste 0 -- -- 83
2021-02-06 14:00:00 7.2 11 Nordeste 28 Nordeste 0 -- -- 82
2021-02-06 13:00:00 6.6 9 Nordeste 32 Nordeste 0 -- -- 87
2021-02-06 12:00:00 6.5 7 Norte 32 Norte 0 -- -- 88
2021-02-06 11:00:00 6.2 12 Norte 25 Norte 0 -- -- 93
2021-02-06 10:00:00 6.1 10 Norte 23 Nordeste 0 -- -- 94
2021-02-06 09:00:00 5.9 11 Norte 26 Norte 0 -- -- 95
2021-02-06 08:00:00 6 4 Nordeste 17 Nordeste 0.6 -- -- 96
2021-02-06 07:00:00 6.2 6 Norte 22 Nordeste 0 -- -- 95
2021-02-06 06:00:00 6.2 8 Norte 23 Nordeste 0.2 -- -- 95
2021-02-06 05:00:00 6.1 9 Norte 28 Norte 0 -- -- 94
2021-02-06 04:00:00 6 8 Norte 24 Norte 0 -- -- 95
2021-02-06 03:00:00 6.1 7 Norte 24 Norte 0.2 -- -- 94
2021-02-06 02:00:00 6.1 9 Norte 28 Norte 1.2 -- -- 94
2021-02-06 01:00:00 6.1 8 Norte 22 Norte 2 -- -- 94
2021-02-06 00:00:00 6.5 8 Norte 27 Nordeste 1.6 -- -- 94
2021-02-05 23:00:00 6.7 9 Norte 22 Nordeste 1.2 -- -- 94
2021-02-05 22:00:00 6.9 7 Norte 24 Nordeste 2 -- -- 94
2021-02-05 21:00:00 7.3 7 Norte 22 Norte 1.6 -- -- 93
2021-02-05 20:00:00 7.5 8 Norte 27 Noroeste 1 -- -- 92
2021-02-05 19:00:00 8 7 Norte 31 Nordeste 0 -- -- 91
2021-02-05 18:00:00 8.1 12 Nordeste 34 Nordeste 0.2 -- -- 90
2021-02-05 17:00:00 8.3 11 Nordeste 31 Nordeste 0 -- -- 88
2021-02-05 16:00:00 8.7 9 Nordeste 26 Norte 0 -- -- 86
2021-02-05 15:00:00 9.2 10 Nordeste 32 Nordeste 0 -- -- 84
2021-02-05 14:00:00 9.8 10 Norte 26 Norte 0 -- -- 83
2021-02-05 13:00:00 10 9 Nordeste 22 Nordeste 0 -- -- 81
2021-02-05 12:00:00 9.1 9 Norte 21 Norte 0 -- -- 90
2021-02-05 11:00:00 7.5 4 Norte 18 Nordeste 0 -- -- 96
2021-02-05 10:00:00 6.4 0 Calma 7 Nordeste 0 -- -- 97
2021-02-05 09:00:00 5.4 2 Sudeste 6 Sudeste 0 -- -- 96
2021-02-05 08:00:00 4.4 0 Calma 3 Noroeste 0 -- -- 97
2021-02-05 07:00:00 4.4 0 Calma 5 Noroeste 0 -- -- 97
2021-02-05 06:00:00 4.3 2 Noroeste 5 Noroeste 0 -- -- 97
2021-02-05 05:00:00 4.8 0 Calma 6 Noroeste 0 -- -- 96
2021-02-05 04:00:00 4.2 2 Noroeste 7 Noroeste 0 -- -- 96
2021-02-05 03:00:00 4.2 5 Noroeste 8 Noroeste 0 -- -- 95
2021-02-05 02:00:00 4.9 0 Calma 3 Noroeste 0 -- -- 94
2021-02-05 01:00:00 5.8 0 Calma 5 Noroeste 0 -- -- 94
2021-02-05 00:00:00 6.5 0 Calma 6 Noroeste 0 -- -- 93
2021-02-04 23:00:00 7.2 2 Noroeste 5 Noroeste 0 -- -- 92
2021-02-04 22:00:00 7.6 0 Calma 7 Noroeste 0.8 -- -- 89
2021-02-04 21:00:00 8.4 0 Calma 3 Sur 0 -- -- 85
2021-02-04 20:00:00 8.8 0 Calma 3 Oeste 0 -- -- 81
2021-02-04 19:00:00 9.9 0 Calma 8 Oeste 0 -- -- 76
2021-02-04 18:00:00 10.9 0 Calma 7 Sur 0 -- -- 70
2021-02-04 17:00:00 11.5 3 Sudoeste 6 Sur 0 -- -- 68
2021-02-04 16:00:00 12.1 3 Sur 12 Sur 0 -- -- 65
2021-02-04 15:00:00 11.9 3 Sur 7 Oeste 0 -- -- 68
2021-02-04 14:00:00 11.3 4 Sur 11 Sur 0 -- -- 71
2021-02-04 13:00:00 10.8 3 Sudoeste 12 Sur 0 -- -- 77
2021-02-04 12:00:00 10.1 4 Sudeste 8 Sudeste 0 -- -- 83
2021-02-04 11:00:00 7.7 3 Sudeste 7 Sudeste 0 -- -- 90
2021-02-04 10:00:00 6.7 3 Sudeste 8 Sur 0 -- -- 92
2021-02-04 09:00:00 5.8 2 Oeste 7 Sur 0 -- -- 92
2021-02-04 08:00:00 5.9 3 Sur 8 Sur 0 -- -- 91
2021-02-04 07:00:00 6.3 2 Sur 13 Sur 0 -- -- 89
2021-02-04 06:00:00 7.2 5 Sudeste 13 Este 0 -- -- 87
2021-02-04 05:00:00 7.1 4 Este 11 Sudeste 0 -- -- 88
2021-02-04 04:00:00 7.3 4 Sudeste 10 Sur 0 -- -- 89
2021-02-04 03:00:00 7.3 4 Sur 8 Sudeste 0 -- -- 89
2021-02-04 02:00:00 7.7 3 Oeste 13 Sur 0.2 -- -- 86
2021-02-04 01:00:00 8.1 6 Sur 21 Sur 0 -- -- 83
2021-02-04 00:00:00 7.9 6 Sur 22 Sur 0 -- -- 85
2021-02-03 23:00:00 7.7 7 Sur 26 Sur 0 -- -- 88
2021-02-03 22:00:00 7.7 6 Sur 20 Sur 0 -- -- 89
2021-02-03 21:00:00 7.9 5 Sur 21 Sur 0 -- -- 90
2021-02-03 20:00:00 7.9 7 Sur 25 Sur 0.2 -- -- 91
2021-02-03 19:00:00 8.3 5 Sudoeste 18 Sur 1 -- -- 89
2021-02-03 18:00:00 9.8 6 Sudoeste 26 Sudeste 0 -- -- 80
2021-02-03 17:00:00 11.9 7 Sur 26 Sur 0 -- -- 69
2021-02-03 16:00:00 12.8 6 Sudoeste 26 Oeste 0 -- -- 63
2021-02-03 15:00:00 12.3 8 Sudoeste 36 Sudoeste 0 -- -- 66
2021-02-03 14:00:00 12.3 5 Sudoeste 28 Oeste 0 -- -- 69
2021-02-03 13:00:00 11.4 5 Sudoeste 19 Oeste 0 -- -- 72
2021-02-03 12:00:00 12 5 Sudoeste 20 Sudoeste 0 -- -- 76
2021-02-03 11:00:00 10.2 5 Sudoeste 19 Sur 0 -- -- 86
2021-02-03 10:00:00 7.6 3 Sudoeste 15 Sudoeste 0.4 -- -- 92
2021-02-03 09:00:00 7.3 2 Sur 18 Sudoeste 0 -- -- 87
2021-02-03 08:00:00 7.6 4 Sudoeste 24 Sudoeste 0 -- -- 89
2021-02-03 07:00:00 7.8 6 Sudoeste 35 Sudoeste 0.2 -- -- 89
2021-02-03 06:00:00 7.7 13 Sudoeste 52 Oeste 1.2 -- -- 88
2021-02-03 05:00:00 8.7 7 Sudoeste 26 Oeste 0 -- -- 82
2021-02-03 04:00:00 9.3 7 Sudoeste 40 Oeste 0 -- -- 83
2021-02-03 03:00:00 10.2 16 Sudoeste 43 Oeste 0 -- -- 80
2021-02-03 02:00:00 10.3 14 Sudoeste 48 Oeste 1 -- -- 91
2021-02-03 01:00:00 10.6 9 Sudoeste 27 Oeste 0 -- -- 90
2021-02-03 00:00:00 10.5 11 Sudoeste 35 Oeste 0.2 -- -- 92
2021-02-02 23:00:00 10.5 14 Sudoeste 37 Oeste 1.8 -- -- 93
2021-02-02 22:00:00 10.7 7 Sudoeste 22 Sur 1.6 -- -- 96
2021-02-02 21:00:00 10.4 8 Sur 25 Sur 1.6 -- -- 96
2021-02-02 20:00:00 10.4 8 Sur 18 Sur 3 -- -- 95
2021-02-02 19:00:00 10.6 5 Sur 23 Sur 0.8 -- -- 94
2021-02-02 18:00:00 10.9 8 Sudoeste 30 Oeste 1.2 -- -- 93
2021-02-02 17:00:00 11.1 6 Sur 25 Sudoeste 4.6 -- -- 94
2021-02-02 16:00:00 11.9 5 Sudoeste 26 Sur 0.6 -- -- 91
2021-02-02 15:00:00 12.5 8 Sur 30 Sur 0 -- -- 91
2021-02-02 14:00:00 12.3 6 Sur 26 Sur 0.8 -- -- 93
2021-02-02 13:00:00 12.1 5 Sur 25 Sudeste 0.4 -- -- 93
2021-02-02 12:00:00 11.1 9 Sur 30 Sur 1.8 -- -- 94
2021-02-02 11:00:00 11 4 Sudoeste 22 Sur 1.2 -- -- 92
2021-02-02 10:00:00 11 6 Sur 26 Sur 0 -- -- 92
2021-02-02 09:00:00 10.6 5 Sudoeste 24 Sudeste 0.2 -- -- 94
2021-02-02 08:00:00 10.4 9 Sur 21 Sur 0.8 -- -- 94
2021-02-02 07:00:00 11.1 5 Sur 26 Sudeste 0 -- -- 88
2021-02-02 06:00:00 10.8 8 Sur 28 Sur 0 -- -- 90
2021-02-02 05:00:00 10.4 6 Sur 21 Sudeste 0 -- -- 93
2021-02-02 04:00:00 10.3 6 Sur 18 Sur 0 -- -- 93
2021-02-02 03:00:00 10.7 5 Sur 15 Sur 0 -- -- 89
2021-02-02 02:00:00 11 4 Sur 20 Oeste 0 -- -- 89
2021-02-02 01:00:00 10.9 6 Sudoeste 19 Oeste 0.2 -- -- 92
2021-02-02 00:00:00 11.4 3 Sudoeste 23 Oeste 0 -- -- 89
2021-02-01 23:00:00 11.1 6 Sudoeste 21 Oeste 0.4 -- -- 95
2021-02-01 22:00:00 11.2 5 Sur 19 Sur 0.2 -- -- 96
2021-02-01 21:00:00 11.1 6 Sur 18 Sur 0 -- -- 95
2021-02-01 20:00:00 11.1 6 Sur 18 Sudeste 0.2 -- -- 95
2021-02-01 19:00:00 11.1 3 Sur 18 Sudeste 0.2 -- -- 94
2021-02-01 18:00:00 11.4 4 Sudoeste 13 Sur 0 -- -- 92
2021-02-01 17:00:00 12.5 5 Sudoeste 26 Oeste 0 -- -- 85
2021-02-01 16:00:00 13 8 Sudoeste 26 Oeste 0 -- -- 78
2021-02-01 15:00:00 12.3 3 Sudoeste 13 Sur 0 -- -- 88
2021-02-01 14:00:00 11.7 4 Sudoeste 26 Oeste 0.2 -- -- 89
2021-02-01 13:00:00 11.3 8 Oeste 30 Oeste 0 -- -- 92
2021-02-01 12:00:00 11.2 6 Oeste 27 Oeste 0 -- -- 92
2021-02-01 11:00:00 10.8 3 Sudoeste 12 Oeste 0.2 -- -- 95
2021-02-01 10:00:00 10.4 3 Sudoeste 16 Sudeste 0 -- -- 92
2021-02-01 09:00:00 10.1 3 Sur 16 Oeste 0 -- -- 91
2021-02-01 08:00:00 10.9 8 Sudoeste 29 Oeste 0 -- -- 84
2021-02-01 07:00:00 11 8 Oeste 36 Oeste 0 -- -- 83
2021-02-01 06:00:00 11.1 11 Oeste 26 Oeste 0 -- -- 84
2021-02-01 05:00:00 11.2 8 Sudoeste 27 Oeste 0 -- -- 82
2021-02-01 04:00:00 11 12 Oeste 36 Sudoeste 0 -- -- 83
2021-02-01 03:00:00 11 14 Oeste 37 Noroeste 0 -- -- 83
2021-02-01 02:00:00 10.7 12 Oeste 35 Oeste 0 -- -- 83
2021-02-01 01:00:00 10.8 15 Oeste 40 Oeste 0 -- -- 83
2021-02-01 00:00:00 10.9 14 Oeste 36 Oeste 0 -- -- 83
2021-01-31 23:00:00 10.9 18 Oeste 37 Sudoeste 0 -- -- 83
2021-01-31 22:00:00 11 14 Oeste 31 Oeste 0 -- -- 83
2021-01-31 21:00:00 11.1 13 Oeste 44 Oeste 0 -- -- 84
2021-01-31 20:00:00 11.5 19 Oeste 40 Oeste 0 -- -- 86
2021-01-31 19:00:00 11.5 17 Oeste 40 Sudoeste 0 -- -- 88
2021-01-31 18:00:00 12.1 20 Oeste 53 Oeste 0 -- -- 86
2021-01-31 17:00:00 13.1 21 Oeste 57 Oeste 0 -- -- 82
2021-01-31 16:00:00 14.1 26 Oeste 52 Oeste 0 -- -- 74
2021-01-31 15:00:00 14.4 23 Oeste 49 Oeste 0 -- -- 76
2021-01-31 14:00:00 14.2 12 Oeste 38 Oeste 0 -- -- 81
2021-01-31 13:00:00 13.5 15 Sudoeste 39 Sudoeste 0 -- -- 82
2021-01-31 12:00:00 12.4 3 Sudoeste 18 Oeste 0 -- -- 97
2021-01-31 11:00:00 10.4 4 Sudeste 15 Sudeste 0 -- -- 97
2021-01-31 10:00:00 9.5 7 Sudeste 16 Sudeste 0 -- -- 97
2021-01-31 09:00:00 8.8 4 Sudeste 12 Sudeste 0.2 -- -- 97
2021-01-31 08:00:00 8.4 4 Sur 13 Sudeste 0.4 -- -- 96
2021-01-31 07:00:00 7.9 5 Sur 13 Sur 0.8 -- -- 96
2021-01-31 06:00:00 7.8 5 Sur 16 Sur 1.4 -- -- 95
2021-01-31 05:00:00 7.8 5 Sur 13 Sur 0.8 -- -- 94
2021-01-31 04:00:00 7.8 6 Sudeste 11 Sudeste 1 -- -- 92
2021-01-31 03:00:00 8.4 3 Sudoeste 20 Oeste 0.2 -- -- 88
2021-01-31 02:00:00 8.5 6 Oeste 29 Oeste 0 -- -- 83
2021-01-31 01:00:00 8.4 11 Oeste 28 Oeste 0 -- -- 84
2021-01-31 00:00:00 8.2 9 Oeste 27 Oeste 0 -- -- 85
2021-01-30 23:00:00 7.8 12 Oeste 32 Oeste 0 -- -- 87
2021-01-30 22:00:00 7.3 8 Oeste 26 Oeste 0.4 -- -- 91
2021-01-30 21:00:00 7.2 9 Oeste 28 Sudoeste 0.4 -- -- 90
2021-01-30 20:00:00 7.6 10 Oeste 35 Oeste 0.2 -- -- 86
2021-01-30 19:00:00 7.6 10 Oeste 43 Oeste 0 -- -- 85
2021-01-30 18:00:00 7.5 14 Oeste 38 Oeste 0.4 -- -- 83
2021-01-30 17:00:00 8.6 13 Oeste 47 Noroeste 0.2 -- -- 81
2021-01-30 16:00:00 9.9 22 Oeste 52 Sudoeste 0.4 -- -- 74
2021-01-30 15:00:00 10.1 16 Oeste 58 Sudoeste 0 -- -- 73
2021-01-30 14:00:00 10.2 19 Oeste 46 Oeste 0.4 -- -- 74
2021-01-30 13:00:00 8.8 17 Oeste 48 Oeste 0.4 -- -- 84
2021-01-30 12:00:00 9.2 17 Oeste 40 Oeste 0 -- -- 79
2021-01-30 11:00:00 8.3 17 Oeste 40 Oeste 0 -- -- 82
2021-01-30 10:00:00 7.3 17 Oeste 37 Oeste 0.4 -- -- 87
2021-01-30 09:00:00 8 17 Oeste 42 Oeste 0 -- -- 85
2021-01-30 08:00:00 7.5 14 Oeste 50 Oeste 0.8 -- -- 89
2021-01-30 07:00:00 8.7 6 Sudoeste 47 Oeste 0 -- -- 83
2021-01-30 06:00:00 9.3 17 Oeste 43 Oeste 0.2 -- -- 80
2021-01-30 05:00:00 9.2 11 Sudoeste 35 Sudoeste 0 -- -- 87
2021-01-30 04:00:00 9.7 15 Oeste 35 Sudoeste 0 -- -- 86
2021-01-30 03:00:00 10.1 18 Oeste 37 Oeste 0 -- -- 84
2021-01-30 02:00:00 10.2 8 Sudoeste 29 Noroeste 0.2 -- -- 89
2021-01-30 01:00:00 10.6 21 Oeste 53 Oeste 1.4 -- -- 89
2021-01-30 00:00:00 10.5 10 Oeste 26 Oeste 4.8 -- -- 94
2021-01-29 23:00:00 10.9 9 Oeste 28 Oeste 4.4 -- -- 95
2021-01-29 22:00:00 11.2 7 Sur 28 Sudeste 0 -- -- 91
2021-01-29 21:00:00 11.6 8 Sur 26 Sur 0 -- -- 86
2021-01-29 20:00:00 12.4 8 Sudoeste 28 Oeste 0 -- -- 79
2021-01-29 19:00:00 12.9 6 Sudoeste 26 Noroeste 0 -- -- 80
2021-01-29 18:00:00 13.7 5 Sudoeste 23 Sudoeste 0 -- -- 82
2021-01-29 17:00:00 14 5 Sur 18 Sur 0 -- -- 82
2021-01-29 16:00:00 14.1 3 Sudoeste 17 Oeste 0 -- -- 83
2021-01-29 15:00:00 13.6 5 Sudoeste 20 Oeste 0 -- -- 87
2021-01-29 14:00:00 13.8 5 Sur 18 Sudeste 0 -- -- 88
2021-01-29 13:00:00 13.5 5 Sur 18 Sur 0 -- -- 90
2021-01-29 12:00:00 13.1 5 Sur 18 Sur 0 -- -- 92
2021-01-29 11:00:00 12.2 5 Sur 19 Sur 0.2 -- -- 94
2021-01-29 10:00:00 11.6 4 Sur 17 Sur 0 -- -- 95
2021-01-29 09:00:00 11.4 5 Sur 17 Sur 0.2 -- -- 95
2021-01-29 08:00:00 11.4 4 Sur 15 Sur 0 -- -- 94
2021-01-29 07:00:00 11.6 4 Sur 16 Sur 0 -- -- 93
2021-01-29 06:00:00 11.6 5 Sur 14 Sur 0 -- -- 93
2021-01-29 05:00:00 11.6 4 Sur 13 Sur 0 -- -- 93
2021-01-29 04:00:00 11.5 4 Sur 13 Sur 0 -- -- 94
2021-01-29 03:00:00 11.6 4 Sudoeste 14 Oeste 0 -- -- 94
2021-01-29 02:00:00 11.6 3 Sudoeste 12 Oeste 0 -- -- 94
2021-01-29 01:00:00 11.4 3 Sur 15 Sur 0.2 -- -- 95
2021-01-29 00:00:00 11.4 5 Sur 15 Sudeste 0 -- -- 95
2021-01-28 23:00:00 11.6 3 Sur 9 Sur 0.4 -- -- 94
2021-01-28 22:00:00 11.8 3 Sur 14 Sudoeste 0.2 -- -- 92
2021-01-28 21:00:00 12.5 3 Sudoeste 20 Oeste 0 -- -- 87
2021-01-28 20:00:00 13.2 5 Sudoeste 19 Oeste 0 -- -- 82
2021-01-28 19:00:00 13 4 Sudoeste 22 Oeste 0 -- -- 87
2021-01-28 18:00:00 13.5 11 Oeste 24 Oeste 0.2 -- -- 90
2021-01-28 17:00:00 14.7 9 Sudoeste 29 Oeste 0 -- -- 84
2021-01-28 16:00:00 15.4 8 Sudoeste 28 Oeste 0 -- -- 79
2021-01-28 15:00:00 15.9 5 Sudoeste 28 Oeste 0 -- -- 77
2021-01-28 14:00:00 17.1 9 Sudoeste 27 Oeste 0 -- -- 73
2021-01-28 13:00:00 15.2 5 Sudoeste 31 Oeste 0 -- -- 80
2021-01-28 12:00:00 13.8 5 Sur 18 Sudeste 0 -- -- 86
2021-01-28 11:00:00 12.7 4 Sur 16 Sur 0 -- -- 87
2021-01-28 10:00:00 12.5 4 Sur 18 Sudeste 0 -- -- 87
2021-01-28 09:00:00 12.3 6 Sur 19 Sudoeste 0 -- -- 88
2021-01-28 08:00:00 12.2 4 Sur 16 Sur 0 -- -- 88
2021-01-28 07:00:00 12.2 5 Sudoeste 15 Sur 0 -- -- 89
2021-01-28 06:00:00 11.6 4 Sur 20 Sudeste 0 -- -- 90
2021-01-28 05:00:00 11.9 5 Sur 21 Sudeste 0 -- -- 90
2021-01-28 04:00:00 12.1 4 Sur 14 Sur 0 -- -- 90
2021-01-28 03:00:00 12.2 6 Sur 15 Sur 0 -- -- 90
2021-01-28 02:00:00 12.6 3 Sur 13 Oeste 0 -- -- 89
2021-01-28 01:00:00 12.5 5 Sur 15 Sur 0 -- -- 90
2021-01-28 00:00:00 12.5 5 Sur 18 Sur 0 -- -- 89
2021-01-27 23:00:00 12.7 6 Sur 13 Sur 0 -- -- 89
2021-01-27 22:00:00 12.7 3 Sur 14 Sur 0 -- -- 88
2021-01-27 21:00:00 12.7 3 Sur 13 Sur 0 -- -- 89
2021-01-27 20:00:00 13 4 Sudoeste 18 Sur 0 -- -- 88
2021-01-27 19:00:00 13.3 5 Sur 16 Sur 0 -- -- 88
2021-01-27 18:00:00 13.8 5 Sur 17 Sur 0 -- -- 87
2021-01-27 17:00:00 14.3 7 Sur 21 Sudeste 0 -- -- 87
2021-01-27 16:00:00 13.9 6 Sur 16 Sudeste 0 -- -- 89
2021-01-27 15:00:00 14.2 4 Sur 16 Sur 0 -- -- 88
2021-01-27 14:00:00 14.5 3 Sur 13 Sur 0 -- -- 90
2021-01-27 13:00:00 14.1 4 Sur 13 Sur 0 -- -- 92
2021-01-27 12:00:00 13.2 3 Sur 9 Sudeste 0 -- -- 95
2021-01-27 11:00:00 12.6 3 Sur 10 Sudeste 0 -- -- 95
2021-01-27 10:00:00 12.2 3 Sur 10 Sur 0 -- -- 96
2021-01-27 09:00:00 12 3 Sur 10 Sur 0 -- -- 96
2021-01-27 08:00:00 12 2 Sur 8 Sur 0 -- -- 96
2021-01-27 07:00:00 12.2 0 Calma 9 Oeste 0 -- -- 95
2021-01-27 06:00:00 12.4 7 Oeste 17 Sudoeste 0 -- -- 95
2021-01-27 05:00:00 12.5 4 Oeste 14 Oeste 0 -- -- 95
2021-01-27 04:00:00 12.5 0 Calma 4 Este 0 -- -- 96
2021-01-27 03:00:00 12.2 0 Calma 4 Sudeste 0 -- -- 95
2021-01-27 02:00:00 12.8 4 Este 11 Oeste 0 -- -- 95
2021-01-27 01:00:00 12.8 0 Calma 6 Sudeste 0 -- -- 95
2021-01-27 00:00:00 12.7 0 Calma 5 Noroeste 0 -- -- 95
2021-01-26 23:00:00 12.9 2 Sudoeste 15 Oeste 0 -- -- 94
2021-01-26 22:00:00 13.2 6 Oeste 14 Oeste 0 -- -- 95
2021-01-26 21:00:00 13.4 2 Oeste 10 Oeste 0 -- -- 95
2021-01-26 20:00:00 13.5 0 Calma 10 Oeste 0 -- -- 95
2021-01-26 19:00:00 13.8 0 Calma 15 Oeste 0.6 -- -- 95
2021-01-26 18:00:00 14 3 Oeste 17 Sudoeste 0 -- -- 95
2021-01-26 17:00:00 14.1 0 Calma 7 Sudeste 0 -- -- 96
2021-01-26 16:00:00 14 4 Sudeste 8 Sudeste 0 -- -- 96
2021-01-26 15:00:00 14.3 3 Sudoeste 12 Oeste 0 -- -- 95
2021-01-26 14:00:00 14.3 2 Sudoeste 15 Oeste 0 -- -- 96
2021-01-26 13:00:00 13.3 2 Sudeste 9 Sur 0 -- -- 97
2021-01-26 12:00:00 12.7 4 Sudeste 9 Sudeste 0 -- -- 97
2021-01-26 11:00:00 12.4 3 Sur 10 Sudeste 0 -- -- 98
2021-01-26 10:00:00 11.4 3 Sudeste 8 Sudeste 0 -- -- 98
2021-01-26 09:00:00 10.8 2 Sudeste 6 Sudeste 0 -- -- 98
2021-01-26 08:00:00 10.7 3 Sudeste 6 Sudeste 0 -- -- 98
2021-01-26 07:00:00 10.7 2 Este 9 Sudeste 0 -- -- 98
2021-01-26 06:00:00 10.8 4 Sudeste 7 Sudeste 0 -- -- 98
2021-01-26 05:00:00 10.8 4 Sudeste 7 Sudeste 0 -- -- 98
2021-01-26 04:00:00 10.6 3 Sudeste 5 Sudeste 0 -- -- 98
2021-01-26 03:00:00 10.6 3 Sudeste 6 Sur 0.2 -- -- 98
2021-01-26 02:00:00 10.4 2 Sudeste 5 Sudeste 0 -- -- 98
2021-01-26 01:00:00 10.3 2 Sudeste 6 Sudeste 0 -- -- 97
2021-01-26 00:00:00 10.2 2 Sudeste 6 Sudeste 0 -- -- 97
2021-01-25 23:00:00 10.2 4 Sudeste 7 Sudeste 0 -- -- 97
2021-01-25 22:00:00 10.2 0 Calma 6 Sudeste 0 -- -- 97
2021-01-25 21:00:00 10.1 0 Calma 2 Sur 0.2 -- -- 97
2021-01-25 20:00:00 10.1 0 Calma 3 Sudoeste 0 -- -- 96
2021-01-25 19:00:00 10.2 0 Calma 4 Noroeste 0 -- -- 96
2021-01-25 18:00:00 10.4 0 Calma 4 Oeste 0 -- -- 95
2021-01-25 17:00:00 10.7 2 Nordeste 6 Nordeste 0 -- -- 94
2021-01-25 16:00:00 11.1 0 Calma 6 Noroeste 0 -- -- 93
2021-01-25 15:00:00 10.7 3 Noroeste 6 Noroeste 0 -- -- 95
2021-01-25 14:00:00 10.1 2 Noroeste 10 Norte 0.4 -- -- 96
2021-01-25 13:00:00 10 4 Noroeste 9 Noroeste 0.6 -- -- 96
2021-01-25 12:00:00 9.3 3 Noroeste 26 Nordeste 3 -- -- 96
2021-01-25 11:00:00 9.4 14 Nordeste 25 Nordeste 2.8 -- -- 95
2021-01-25 10:00:00 11.6 6 Oeste 17 Oeste 1.2 -- -- 96
2021-01-25 09:00:00 11.5 6 Oeste 19 Oeste 0 -- -- 95
2021-01-25 08:00:00 11.6 6 Oeste 28 Oeste 0 -- -- 95
2021-01-25 07:00:00 11.6 8 Oeste 24 Oeste 0.2 -- -- 95
2021-01-25 06:00:00 11.5 10 Oeste 25 Oeste 0.2 -- -- 98
2021-01-25 05:00:00 9.2 3 Sur 13 Sudeste 0.8 -- -- 97
2021-01-25 04:00:00 8.6 4 Sur 11 Sur 0.6 -- -- 97
2021-01-25 03:00:00 8.2 5 Sudeste 15 Sudeste 1.4 -- -- 97
2021-01-25 02:00:00 7.9 5 Sudeste 14 Sur 0.4 -- -- 96
2021-01-25 01:00:00 7.7 6 Sur 17 Sudeste 0.2 -- -- 96
2021-01-25 00:00:00 7.8 4 Sur 14 Sur 0.4 -- -- 95